sensor_id;sensor_type;location;lat;lon;timestamp;P1;durP1;ratioP1;P2;durP2;ratioP2
39740;SDS011;25426;53.478;10.190;2024-02-23T08:32:59;7.40;;;2.47;;
39740;SDS011;25426;53.478;10.190;2024-02-23T08:35:30;7.05;;;2.53;;
39740;SDS011;25426;53.478;10.190;2024-02-23T08:38:02;4.80;;;2.05;;
39740;SDS011;25426;53.478;10.190;2024-02-23T08:40:34;5.28;;;2.70;;
39740;SDS011;25426;53.478;10.190;2024-02-23T08:43:05;4.45;;;2.22;;
39740;SDS011;25426;53.478;10.190;2024-02-23T08:45:36;11.35;;;2.75;;
39740;SDS011;25426;53.478;10.190;2024-02-23T08:48:07;3.47;;;2.05;;
39740;SDS011;25426;53.478;10.190;2024-02-23T08:50:38;4.47;;;2.10;;
39740;SDS011;25426;53.478;10.190;2024-02-23T08:53:09;6.28;;;2.40;;
39740;SDS011;25426;53.478;10.190;2024-02-23T08:55:40;6.65;;;2.47;;
39740;SDS011;25426;53.478;10.190;2024-02-23T08:58:11;5.10;;;1.83;;
39740;SDS011;25426;53.478;10.190;2024-02-23T09:00:43;5.40;;;2.50;;
39740;SDS011;25426;53.478;10.190;2024-02-23T09:03:14;3.55;;;1.80;;
39740;SDS011;25426;53.478;10.190;2024-02-23T09:05:44;6.15;;;2.00;;
39740;SDS011;25426;53.478;10.190;2024-02-23T09:08:17;6.00;;;2.13;;
39740;SDS011;25426;53.478;10.190;2024-02-23T09:10:48;4.78;;;1.90;;
39740;SDS011;25426;53.478;10.190;2024-02-23T09:13:18;5.45;;;2.10;;
39740;SDS011;25426;53.478;10.190;2024-02-23T09:15:49;7.40;;;2.25;;
39740;SDS011;25426;53.478;10.190;2024-02-23T09:18:20;3.20;;;1.48;;
39740;SDS011;25426;53.478;10.190;2024-02-23T09:20:51;3.38;;;1.80;;
39740;SDS011;25426;53.478;10.190;2024-02-23T09:23:22;4.68;;;1.52;;
39740;SDS011;25426;53.478;10.190;2024-02-23T09:25:53;4.22;;;2.08;;
39740;SDS011;25426;53.478;10.190;2024-02-23T09:28:24;3.90;;;1.63;;
39740;SDS011;25426;53.478;10.190;2024-02-23T09:30:55;4.72;;;1.85;;
39740;SDS011;25426;53.478;10.190;2024-02-23T09:33:26;3.72;;;1.88;;
39740;SDS011;25426;53.478;10.190;2024-02-23T09:35:57;8.23;;;2.38;;
39740;SDS011;25426;53.478;10.190;2024-02-23T09:38:28;4.63;;;1.98;;
39740;SDS011;25426;53.478;10.190;2024-02-23T09:41:02;6.57;;;2.33;;
39740;SDS011;25426;53.478;10.190;2024-02-23T09:43:34;8.85;;;2.28;;
39740;SDS011;25426;53.478;10.190;2024-02-23T09:46:05;4.53;;;1.90;;
39740;SDS011;25426;53.478;10.190;2024-02-23T09:48:36;4.95;;;2.15;;
39740;SDS011;25426;53.478;10.190;2024-02-23T09:51:07;5.20;;;2.10;;
39740;SDS011;25426;53.478;10.190;2024-02-23T09:53:41;4.93;;;1.92;;
39740;SDS011;25426;53.478;10.190;2024-02-23T09:56:12;4.53;;;2.28;;
39740;SDS011;25426;53.478;10.190;2024-02-23T09:58:47;5.07;;;1.80;;
39740;SDS011;25426;53.478;10.190;2024-02-23T10:01:26;3.15;;;1.80;;
39740;SDS011;25426;53.478;10.190;2024-02-23T10:04:03;3.03;;;2.22;;
39740;SDS011;25426;53.478;10.190;2024-02-23T10:06:36;5.15;;;1.95;;
39740;SDS011;25426;53.478;10.190;2024-02-23T10:09:07;3.63;;;1.77;;
39740;SDS011;25426;53.478;10.190;2024-02-23T10:11:38;4.15;;;2.00;;
39740;SDS011;25426;53.478;10.190;2024-02-23T10:14:09;3.17;;;1.63;;
39740;SDS011;25426;53.478;10.190;2024-02-23T10:16:41;4.05;;;1.90;;
39740;SDS011;25426;53.478;10.190;2024-02-23T10:19:12;4.22;;;1.85;;
39740;SDS011;25426;53.478;10.190;2024-02-23T10:21:43;4.63;;;1.88;;
39740;SDS011;25426;53.478;10.190;2024-02-23T10:24:15;6.50;;;2.28;;
39740;SDS011;25426;53.478;10.190;2024-02-23T10:26:47;6.68;;;2.17;;
39740;SDS011;25426;53.478;10.190;2024-02-23T10:29:18;8.13;;;2.67;;
39740;SDS011;25426;53.478;10.190;2024-02-23T10:31:50;4.47;;;2.35;;
39740;SDS011;25426;53.478;10.190;2024-02-23T10:34:22;3.78;;;1.60;;
39740;SDS011;25426;53.478;10.190;2024-02-23T10:36:54;8.10;;;1.80;;
39740;SDS011;25426;53.478;10.190;2024-02-23T10:39:26;4.82;;;1.65;;
39740;SDS011;25426;53.478;10.190;2024-02-23T10:42:00;3.15;;;1.85;;
39740;SDS011;25426;53.478;10.190;2024-02-23T10:44:35;5.20;;;1.70;;
39740;SDS011;25426;53.478;10.190;2024-02-23T10:47:07;5.20;;;1.60;;
39740;SDS011;25426;53.478;10.190;2024-02-23T10:49:38;5.40;;;1.85;;
39740;SDS011;25426;53.478;10.190;2024-02-23T10:52:10;2.15;;;1.73;;
39740;SDS011;25426;53.478;10.190;2024-02-23T10:54:44;4.35;;;1.67;;
39740;SDS011;25426;53.478;10.190;2024-02-23T10:57:17;5.20;;;1.90;;
39740;SDS011;25426;53.478;10.190;2024-02-23T10:59:48;3.55;;;1.73;;
39740;SDS011;25426;53.478;10.190;2024-02-23T11:02:19;3.85;;;1.40;;
39740;SDS011;25426;53.478;10.190;2024-02-23T11:04:52;2.70;;;1.30;;
39740;SDS011;25426;53.478;10.190;2024-02-23T11:07:23;6.80;;;1.40;;
39740;SDS011;25426;53.478;10.190;2024-02-23T11:09:58;3.08;;;1.70;;
39740;SDS011;25426;53.478;10.190;2024-02-23T11:12:29;4.30;;;1.70;;
39740;SDS011;25426;53.478;10.190;2024-02-23T11:15:00;4.40;;;1.58;;
39740;SDS011;25426;53.478;10.190;2024-02-23T11:17:33;4.05;;;1.42;;
39740;SDS011;25426;53.478;10.190;2024-02-23T11:20:07;8.23;;;2.08;;
39740;SDS011;25426;53.478;10.190;2024-02-23T11:22:38;6.72;;;2.10;;
39740;SDS011;25426;53.478;10.190;2024-02-23T11:25:10;5.13;;;2.03;;
39740;SDS011;25426;53.478;10.190;2024-02-23T11:27:41;5.75;;;1.85;;
39740;SDS011;25426;53.478;10.190;2024-02-23T11:30:13;3.40;;;1.35;;
39740;SDS011;25426;53.478;10.190;2024-02-23T11:32:48;5.88;;;1.85;;
39740;SDS011;25426;53.478;10.190;2024-02-23T11:35:25;4.20;;;1.40;;
39740;SDS011;25426;53.478;10.190;2024-02-23T11:37:56;2.92;;;1.35;;
39740;SDS011;25426;53.478;10.190;2024-02-23T11:40:31;4.30;;;1.65;;
39740;SDS011;25426;53.478;10.190;2024-02-23T11:43:03;5.50;;;1.65;;
39740;SDS011;25426;53.478;10.190;2024-02-23T11:45:35;2.15;;;1.17;;
39740;SDS011;25426;53.478;10.190;2024-02-23T11:48:06;7.05;;;1.52;;
39740;SDS011;25426;53.478;10.190;2024-02-23T11:50:37;3.15;;;1.50;;
39740;SDS011;25426;53.478;10.190;2024-02-23T11:53:08;3.67;;;1.60;;
39740;SDS011;25426;53.478;10.190;2024-02-23T11:55:39;2.65;;;1.55;;
39740;SDS011;25426;53.478;10.190;2024-02-23T11:58:10;4.38;;;1.63;;
39740;SDS011;25426;53.478;10.190;2024-02-23T12:00:41;3.75;;;1.30;;
39740;SDS011;25426;53.478;10.190;2024-02-23T12:03:12;3.13;;;1.17;;
39740;SDS011;25426;53.478;10.190;2024-02-23T12:05:43;5.22;;;1.90;;
39740;SDS011;25426;53.478;10.190;2024-02-23T12:08:14;3.28;;;1.42;;
39740;SDS011;25426;53.478;10.190;2024-02-23T12:10:45;1.98;;;1.23;;
39740;SDS011;25426;53.478;10.190;2024-02-23T12:13:17;2.85;;;0.93;;
39740;SDS011;25426;53.478;10.190;2024-02-23T12:15:51;6.43;;;1.33;;
39740;SDS011;25426;53.478;10.190;2024-02-23T12:18:23;1.58;;;0.90;;
39740;SDS011;25426;53.478;10.190;2024-02-23T12:21:04;3.83;;;1.20;;
39740;SDS011;25426;53.478;10.190;2024-02-23T12:23:40;4.68;;;1.23;;
39740;SDS011;25426;53.478;10.190;2024-02-23T12:26:13;3.90;;;1.17;;
39740;SDS011;25426;53.478;10.190;2024-02-23T12:28:48;4.30;;;1.13;;
39740;SDS011;25426;53.478;10.190;2024-02-23T12:31:23;4.05;;;1.33;;
39740;SDS011;25426;53.478;10.190;2024-02-23T12:33:56;1.90;;;1.40;;
39740;SDS011;25426;53.478;10.190;2024-02-23T12:36:28;4.65;;;1.45;;
39740;SDS011;25426;53.478;10.190;2024-02-23T12:39:00;3.28;;;1.52;;
39740;SDS011;25426;53.478;10.190;2024-02-23T12:41:31;3.33;;;1.13;;
39740;SDS011;25426;53.478;10.190;2024-02-23T12:44:03;3.75;;;1.40;;
39740;SDS011;25426;53.478;10.190;2024-02-23T12:46:33;3.95;;;1.40;;
39740;SDS011;25426;53.478;10.190;2024-02-23T12:49:04;2.85;;;1.23;;
39740;SDS011;25426;53.478;10.190;2024-02-23T12:51:35;1.92;;;0.90;;
39740;SDS011;25426;53.478;10.190;2024-02-23T12:54:06;2.35;;;1.55;;
39740;SDS011;25426;53.478;10.190;2024-02-23T12:56:37;1.58;;;1.25;;
39740;SDS011;25426;53.478;10.190;2024-02-23T12:59:08;3.85;;;1.45;;
39740;SDS011;25426;53.478;10.190;2024-02-23T13:01:39;2.40;;;1.17;;
39740;SDS011;25426;53.478;10.190;2024-02-23T13:04:10;4.60;;;1.45;;
39740;SDS011;25426;53.478;10.190;2024-02-23T13:06:41;7.97;;;1.73;;
39740;SDS011;25426;53.478;10.190;2024-02-23T13:09:12;1.90;;;1.10;;
39740;SDS011;25426;53.478;10.190;2024-02-23T13:11:44;2.60;;;1.30;;
39740;SDS011;25426;53.478;10.190;2024-02-23T13:14:16;1.42;;;1.00;;
39740;SDS011;25426;53.478;10.190;2024-02-23T13:16:48;3.15;;;1.08;;
39740;SDS011;25426;53.478;10.190;2024-02-23T13:19:19;2.20;;;0.80;;
39740;SDS011;25426;53.478;10.190;2024-02-23T13:21:50;3.97;;;1.13;;
39740;SDS011;25426;53.478;10.190;2024-02-23T13:24:20;3.20;;;1.20;;
39740;SDS011;25426;53.478;10.190;2024-02-23T13:26:51;1.90;;;0.80;;
39740;SDS011;25426;53.478;10.190;2024-02-23T13:29:22;2.75;;;1.20;;
39740;SDS011;25426;53.478;10.190;2024-02-23T13:31:53;3.10;;;1.40;;
39740;SDS011;25426;53.478;10.190;2024-02-23T13:34:24;3.00;;;1.45;;
39740;SDS011;25426;53.478;10.190;2024-02-23T13:36:55;4.15;;;2.05;;
39740;SDS011;25426;53.478;10.190;2024-02-23T13:39:26;2.17;;;1.05;;
39740;SDS011;25426;53.478;10.190;2024-02-23T13:41:57;3.38;;;1.40;;
39740;SDS011;25426;53.478;10.190;2024-02-23T13:44:28;2.00;;;0.98;;
39740;SDS011;25426;53.478;10.190;2024-02-23T13:46:59;4.10;;;1.58;;
39740;SDS011;25426;53.478;10.190;2024-02-23T13:49:30;2.53;;;1.67;;
39740;SDS011;25426;53.478;10.190;2024-02-23T13:52:01;1.90;;;1.27;;
39740;SDS011;25426;53.478;10.190;2024-02-23T13:54:31;3.78;;;1.30;;
39740;SDS011;25426;53.478;10.190;2024-02-23T13:57:02;4.30;;;1.33;;
39740;SDS011;25426;53.478;10.190;2024-02-23T13:59:33;3.35;;;1.48;;
39740;SDS011;25426;53.478;10.190;2024-02-23T14:02:05;1.52;;;1.30;;
39740;SDS011;25426;53.478;10.190;2024-02-23T14:04:36;3.20;;;1.20;;
39740;SDS011;25426;53.478;10.190;2024-02-23T14:07:07;1.13;;;0.93;;
39740;SDS011;25426;53.478;10.190;2024-02-23T14:09:38;3.78;;;1.70;;
39740;SDS011;25426;53.478;10.190;2024-02-23T14:12:09;3.92;;;1.23;;
39740;SDS011;25426;53.478;10.190;2024-02-23T14:14:40;3.45;;;1.42;;
39740;SDS011;25426;53.478;10.190;2024-02-23T14:17:11;2.83;;;1.45;;
39740;SDS011;25426;53.478;10.190;2024-02-23T14:19:41;5.18;;;2.58;;
39740;SDS011;25426;53.478;10.190;2024-02-23T14:22:12;3.20;;;2.28;;
39740;SDS011;25426;53.478;10.190;2024-02-23T14:24:43;6.40;;;2.50;;
39740;SDS011;25426;53.478;10.190;2024-02-23T14:27:14;6.68;;;3.45;;
39740;SDS011;25426;53.478;10.190;2024-02-23T14:29:45;5.70;;;3.30;;
39740;SDS011;25426;53.478;10.190;2024-02-23T14:32:17;3.08;;;1.48;;
39740;SDS011;25426;53.478;10.190;2024-02-23T14:34:48;6.13;;;3.38;;
39740;SDS011;25426;53.478;10.190;2024-02-23T14:37:19;11.50;;;6.03;;
39740;SDS011;25426;53.478;10.190;2024-02-23T14:39:50;5.30;;;3.47;;
39740;SDS011;25426;53.478;10.190;2024-02-23T14:42:22;6.65;;;3.63;;
39740;SDS011;25426;53.478;10.190;2024-02-23T14:44:53;2.55;;;1.23;;
39740;SDS011;25426;53.478;10.190;2024-02-23T14:47:23;4.18;;;1.67;;
39740;SDS011;25426;53.478;10.190;2024-02-23T14:49:54;2.70;;;1.17;;
39740;SDS011;25426;53.478;10.190;2024-02-23T14:52:25;1.27;;;0.88;;
39740;SDS011;25426;53.478;10.190;2024-02-23T14:54:56;4.32;;;1.40;;
39740;SDS011;25426;53.478;10.190;2024-02-23T14:57:27;2.95;;;1.10;;
39740;SDS011;25426;53.478;10.190;2024-02-23T14:59:58;5.55;;;1.30;;
39740;SDS011;25426;53.478;10.190;2024-02-23T15:02:29;2.95;;;1.27;;
39740;SDS011;25426;53.478;10.190;2024-02-23T15:05:00;1.65;;;0.93;;
39740;SDS011;25426;53.478;10.190;2024-02-23T15:07:31;3.75;;;1.33;;
39740;SDS011;25426;53.478;10.190;2024-02-23T15:10:03;2.10;;;1.42;;
39740;SDS011;25426;53.478;10.190;2024-02-23T15:12:38;3.83;;;1.50;;
39740;SDS011;25426;53.478;10.190;2024-02-23T15:15:09;3.90;;;2.08;;
39740;SDS011;25426;53.478;10.190;2024-02-23T15:17:40;3.20;;;1.70;;
39740;SDS011;25426;53.478;10.190;2024-02-23T15:20:12;4.63;;;2.03;;
39740;SDS011;25426;53.478;10.190;2024-02-23T15:22:43;3.78;;;1.92;;
39740;SDS011;25426;53.478;10.190;2024-02-23T15:25:16;3.05;;;1.17;;
39740;SDS011;25426;53.478;10.190;2024-02-23T15:27:47;5.60;;;1.52;;
39740;SDS011;25426;53.478;10.190;2024-02-23T15:30:19;3.42;;;1.83;;
39740;SDS011;25426;53.478;10.190;2024-02-23T15:32:50;4.95;;;1.60;;
39740;SDS011;25426;53.478;10.190;2024-02-23T15:35:21;4.22;;;1.60;;
39740;SDS011;25426;53.478;10.190;2024-02-23T15:37:56;4.70;;;1.30;;
39740;SDS011;25426;53.478;10.190;2024-02-23T15:40:27;2.35;;;1.38;;
39740;SDS011;25426;53.478;10.190;2024-02-23T15:42:58;4.57;;;2.50;;
39740;SDS011;25426;53.478;10.190;2024-02-23T15:45:29;2.47;;;1.48;;
39740;SDS011;25426;53.478;10.190;2024-02-23T15:48:00;4.93;;;1.60;;
39740;SDS011;25426;53.478;10.190;2024-02-23T15:50:31;3.72;;;1.50;;
39740;SDS011;25426;53.478;10.190;2024-02-23T15:53:02;4.30;;;1.60;;
39740;SDS011;25426;53.478;10.190;2024-02-23T15:55:34;4.50;;;2.20;;
39740;SDS011;25426;53.478;10.190;2024-02-23T15:58:06;7.35;;;3.20;;
39740;SDS011;25426;53.478;10.190;2024-02-23T16:00:38;3.08;;;2.17;;
39740;SDS011;25426;53.478;10.190;2024-02-23T16:03:09;2.83;;;1.80;;
39740;SDS011;25426;53.478;10.190;2024-02-23T16:05:40;2.35;;;1.38;;
39740;SDS011;25426;53.478;10.190;2024-02-23T16:08:12;4.03;;;1.58;;
39740;SDS011;25426;53.478;10.190;2024-02-23T16:10:43;5.20;;;1.63;;
39740;SDS011;25426;53.478;10.190;2024-02-23T16:13:14;3.33;;;1.75;;
39740;SDS011;25426;53.478;10.190;2024-02-23T16:15:46;3.50;;;1.65;;
39740;SDS011;25426;53.478;10.190;2024-02-23T16:18:17;2.90;;;1.77;;
39740;SDS011;25426;53.478;10.190;2024-02-23T16:20:48;3.47;;;1.27;;
39740;SDS011;25426;53.478;10.190;2024-02-23T16:23:19;5.53;;;2.95;;
39740;SDS011;25426;53.478;10.190;2024-02-23T16:25:50;6.30;;;3.38;;
39740;SDS011;25426;53.478;10.190;2024-02-23T16:28:21;8.70;;;4.10;;
39740;SDS011;25426;53.478;10.190;2024-02-23T16:30:52;4.68;;;2.80;;
39740;SDS011;25426;53.478;10.190;2024-02-23T16:33:23;2.72;;;1.40;;
39740;SDS011;25426;53.478;10.190;2024-02-23T16:35:54;2.90;;;2.13;;
39740;SDS011;25426;53.478;10.190;2024-02-23T16:38:29;3.30;;;2.80;;
39740;SDS011;25426;53.478;10.190;2024-02-23T16:41:00;6.97;;;3.83;;
39740;SDS011;25426;53.478;10.190;2024-02-23T16:43:31;4.75;;;3.30;;
39740;SDS011;25426;53.478;10.190;2024-02-23T16:46:03;7.10;;;3.40;;
39740;SDS011;25426;53.478;10.190;2024-02-23T16:48:34;8.50;;;3.60;;
39740;SDS011;25426;53.478;10.190;2024-02-23T16:51:05;6.47;;;3.63;;
39740;SDS011;25426;53.478;10.190;2024-02-23T16:53:36;4.38;;;3.72;;
39740;SDS011;25426;53.478;10.190;2024-02-23T16:56:07;7.07;;;3.42;;
39740;SDS011;25426;53.478;10.190;2024-02-23T16:58:38;7.43;;;3.38;;
39740;SDS011;25426;53.478;10.190;2024-02-23T17:01:09;4.78;;;3.20;;
39740;SDS011;25426;53.478;10.190;2024-02-23T17:03:41;6.38;;;3.45;;
39740;SDS011;25426;53.478;10.190;2024-02-23T17:06:12;3.85;;;2.30;;
39740;SDS011;25426;53.478;10.190;2024-02-23T17:08:43;6.65;;;2.85;;
39740;SDS011;25426;53.478;10.190;2024-02-23T17:11:14;5.35;;;2.30;;
39740;SDS011;25426;53.478;10.190;2024-02-23T17:13:45;5.25;;;3.38;;
39740;SDS011;25426;53.478;10.190;2024-02-23T17:16:17;5.45;;;3.85;;
39740;SDS011;25426;53.478;10.190;2024-02-23T17:18:48;9.40;;;7.13;;
39740;SDS011;25426;53.478;10.190;2024-02-23T17:21:19;10.18;;;5.93;;
39740;SDS011;25426;53.478;10.190;2024-02-23T17:23:50;7.30;;;4.40;;
39740;SDS011;25426;53.478;10.190;2024-02-23T17:26:22;5.72;;;3.42;;
39740;SDS011;25426;53.478;10.190;2024-02-23T17:28:53;3.95;;;3.03;;
39740;SDS011;25426;53.478;10.190;2024-02-23T17:31:23;7.15;;;4.13;;
39740;SDS011;25426;53.478;10.190;2024-02-23T17:33:54;5.40;;;2.88;;
39740;SDS011;25426;53.478;10.190;2024-02-23T17:36:25;4.63;;;2.95;;
39740;SDS011;25426;53.478;10.190;2024-02-23T17:38:56;4.30;;;2.70;;
39740;SDS011;25426;53.478;10.190;2024-02-23T17:41:27;3.47;;;1.98;;
39740;SDS011;25426;53.478;10.190;2024-02-23T17:43:58;9.52;;;2.97;;
39740;SDS011;25426;53.478;10.190;2024-02-23T17:46:29;5.97;;;2.53;;
39740;SDS011;25426;53.478;10.190;2024-02-23T17:49:01;7.45;;;2.83;;
39740;SDS011;25426;53.478;10.190;2024-02-23T17:51:33;3.35;;;2.60;;
39740;SDS011;25426;53.478;10.190;2024-02-23T17:54:04;3.63;;;2.50;;
39740;SDS011;25426;53.478;10.190;2024-02-23T17:56:35;4.38;;;3.08;;
39740;SDS011;25426;53.478;10.190;2024-02-23T17:59:05;6.65;;;4.07;;
39740;SDS011;25426;53.478;10.190;2024-02-23T18:01:36;3.92;;;2.72;;
39740;SDS011;25426;53.478;10.190;2024-02-23T18:04:08;6.03;;;3.42;;
39740;SDS011;25426;53.478;10.190;2024-02-23T18:06:38;6.88;;;2.70;;
39740;SDS011;25426;53.478;10.190;2024-02-23T18:09:09;3.97;;;2.45;;
39740;SDS011;25426;53.478;10.190;2024-02-23T18:11:40;6.88;;;2.75;;
39740;SDS011;25426;53.478;10.190;2024-02-23T18:14:15;4.97;;;3.15;;
39740;SDS011;25426;53.478;10.190;2024-02-23T18:16:46;4.78;;;2.38;;
39740;SDS011;25426;53.478;10.190;2024-02-23T18:19:18;6.88;;;2.72;;
39740;SDS011;25426;53.478;10.190;2024-02-23T18:21:50;2.95;;;2.33;;
39740;SDS011;25426;53.478;10.190;2024-02-23T18:24:21;4.32;;;2.95;;
39740;SDS011;25426;53.478;10.190;2024-02-23T18:26:52;3.58;;;2.55;;
39740;SDS011;25426;53.478;10.190;2024-02-23T18:29:23;5.18;;;2.55;;
39740;SDS011;25426;53.478;10.190;2024-02-23T18:31:53;3.50;;;2.20;;
39740;SDS011;25426;53.478;10.190;2024-02-23T18:34:24;4.10;;;2.13;;
39740;SDS011;25426;53.478;10.190;2024-02-23T18:36:55;2.92;;;1.85;;
39740;SDS011;25426;53.478;10.190;2024-02-23T18:39:26;2.55;;;1.92;;
39740;SDS011;25426;53.478;10.190;2024-02-23T18:41:57;6.07;;;2.15;;
39740;SDS011;25426;53.478;10.190;2024-02-23T18:44:28;8.27;;;4.43;;
39740;SDS011;25426;53.478;10.190;2024-02-23T18:46:59;7.40;;;4.78;;
39740;SDS011;25426;53.478;10.190;2024-02-23T18:49:30;8.02;;;3.80;;
39740;SDS011;25426;53.478;10.190;2024-02-23T18:52:02;8.65;;;3.47;;
39740;SDS011;25426;53.478;10.190;2024-02-23T18:54:34;6.68;;;3.50;;
39740;SDS011;25426;53.478;10.190;2024-02-23T18:57:05;4.75;;;2.30;;
39740;SDS011;25426;53.478;10.190;2024-02-23T18:59:36;7.22;;;3.78;;
39740;SDS011;25426;53.478;10.190;2024-02-23T19:02:07;6.10;;;4.10;;
39740;SDS011;25426;53.478;10.190;2024-02-23T19:04:38;8.45;;;3.33;;
39740;SDS011;25426;53.478;10.190;2024-02-23T19:07:09;4.55;;;2.53;;
39740;SDS011;25426;53.478;10.190;2024-02-23T19:09:41;5.95;;;3.95;;
39740;SDS011;25426;53.478;10.190;2024-02-23T19:12:12;5.93;;;3.13;;
39740;SDS011;25426;53.478;10.190;2024-02-23T19:14:44;8.52;;;4.00;;
39740;SDS011;25426;53.478;10.190;2024-02-23T19:17:15;7.35;;;4.45;;
39740;SDS011;25426;53.478;10.190;2024-02-23T19:19:46;9.50;;;5.65;;
39740;SDS011;25426;53.478;10.190;2024-02-23T19:22:17;5.53;;;3.22;;
39740;SDS011;25426;53.478;10.190;2024-02-23T19:24:48;6.00;;;3.38;;
39740;SDS011;25426;53.478;10.190;2024-02-23T19:27:19;6.18;;;3.35;;
39740;SDS011;25426;53.478;10.190;2024-02-23T19:29:51;5.97;;;2.85;;
39740;SDS011;25426;53.478;10.190;2024-02-23T19:32:23;7.18;;;3.65;;
39740;SDS011;25426;53.478;10.190;2024-02-23T19:34:54;4.25;;;3.28;;
39740;SDS011;25426;53.478;10.190;2024-02-23T19:37:25;4.30;;;2.70;;
39740;SDS011;25426;53.478;10.190;2024-02-23T19:39:56;5.78;;;3.30;;
39740;SDS011;25426;53.478;10.190;2024-02-23T19:42:27;5.95;;;3.60;;
39740;SDS011;25426;53.478;10.190;2024-02-23T19:44:58;11.18;;;8.65;;
39740;SDS011;25426;53.478;10.190;2024-02-23T19:47:29;16.15;;;12.57;;
39740;SDS011;25426;53.478;10.190;2024-02-23T19:50:00;10.60;;;7.80;;
39740;SDS011;25426;53.478;10.190;2024-02-23T19:52:31;7.95;;;6.13;;
39740;SDS011;25426;53.478;10.190;2024-02-23T19:55:02;9.82;;;4.60;;
39740;SDS011;25426;53.478;10.190;2024-02-23T19:57:34;6.80;;;3.50;;
39740;SDS011;25426;53.478;10.190;2024-02-23T20:00:06;6.65;;;3.03;;
39740;SDS011;25426;53.478;10.190;2024-02-23T20:02:37;3.97;;;2.92;;
39740;SDS011;25426;53.478;10.190;2024-02-23T20:05:08;2.88;;;2.60;;
39740;SDS011;25426;53.478;10.190;2024-02-23T20:07:39;4.15;;;2.75;;
39740;SDS011;25426;53.478;10.190;2024-02-23T20:10:10;5.18;;;3.13;;
39740;SDS011;25426;53.478;10.190;2024-02-23T20:12:46;4.30;;;2.85;;
39740;SDS011;25426;53.478;10.190;2024-02-23T20:15:19;4.85;;;2.65;;
39740;SDS011;25426;53.478;10.190;2024-02-23T20:17:50;4.75;;;2.58;;
39740;SDS011;25426;53.478;10.190;2024-02-23T20:20:23;6.22;;;2.80;;
39740;SDS011;25426;53.478;10.190;2024-02-23T20:22:54;4.22;;;2.90;;
39740;SDS011;25426;53.478;10.190;2024-02-23T20:25:25;4.30;;;2.90;;
39740;SDS011;25426;53.478;10.190;2024-02-23T20:27:55;3.92;;;2.70;;
39740;SDS011;25426;53.478;10.190;2024-02-23T20:30:26;2.95;;;2.25;;
39740;SDS011;25426;53.478;10.190;2024-02-23T20:32:58;4.45;;;2.40;;
39740;SDS011;25426;53.478;10.190;2024-02-23T20:35:29;4.90;;;2.60;;
39740;SDS011;25426;53.478;10.190;2024-02-23T20:38:01;3.92;;;2.50;;
39740;SDS011;25426;53.478;10.190;2024-02-23T20:40:32;5.03;;;2.97;;
39740;SDS011;25426;53.478;10.190;2024-02-23T20:43:03;6.63;;;2.90;;
39740;SDS011;25426;53.478;10.190;2024-02-23T20:45:33;6.53;;;2.80;;
39740;SDS011;25426;53.478;10.190;2024-02-23T20:48:06;4.32;;;2.72;;
39740;SDS011;25426;53.478;10.190;2024-02-23T20:50:39;5.82;;;2.85;;
39740;SDS011;25426;53.478;10.190;2024-02-23T20:53:10;7.28;;;3.50;;
39740;SDS011;25426;53.478;10.190;2024-02-23T20:55:42;7.38;;;3.55;;
39740;SDS011;25426;53.478;10.190;2024-02-23T20:58:13;7.50;;;4.10;;
39740;SDS011;25426;53.478;10.190;2024-02-23T21:00:45;6.85;;;2.92;;
39740;SDS011;25426;53.478;10.190;2024-02-23T21:03:18;4.88;;;2.67;;
39740;SDS011;25426;53.478;10.190;2024-02-23T21:05:50;3.92;;;2.58;;
39740;SDS011;25426;53.478;10.190;2024-02-23T21:08:22;5.45;;;3.08;;
39740;SDS011;25426;53.478;10.190;2024-02-23T21:10:53;6.65;;;3.58;;
39740;SDS011;25426;53.478;10.190;2024-02-23T21:13:24;5.13;;;3.28;;
39740;SDS011;25426;53.478;10.190;2024-02-23T21:15:56;6.22;;;2.95;;
39740;SDS011;25426;53.478;10.190;2024-02-23T21:18:28;3.10;;;2.40;;
39740;SDS011;25426;53.478;10.190;2024-02-23T21:20:59;5.25;;;3.05;;
39740;SDS011;25426;53.478;10.190;2024-02-23T21:23:30;4.95;;;2.72;;
39740;SDS011;25426;53.478;10.190;2024-02-23T21:26:01;4.78;;;3.53;;
39740;SDS011;25426;53.478;10.190;2024-02-23T21:28:32;5.68;;;3.00;;
39740;SDS011;25426;53.478;10.190;2024-02-23T21:31:03;4.15;;;3.78;;
39740;SDS011;25426;53.478;10.190;2024-02-23T21:33:35;9.13;;;4.05;;
39740;SDS011;25426;53.478;10.190;2024-02-23T21:36:06;5.50;;;3.45;;
39740;SDS011;25426;53.478;10.190;2024-02-23T21:38:37;5.90;;;3.95;;
39740;SDS011;25426;53.478;10.190;2024-02-23T21:41:07;7.60;;;3.55;;
39740;SDS011;25426;53.478;10.190;2024-02-23T21:43:38;4.63;;;3.08;;
39740;SDS011;25426;53.478;10.190;2024-02-23T21:46:09;7.57;;;3.22;;
39740;SDS011;25426;53.478;10.190;2024-02-23T21:48:42;7.15;;;3.22;;
39740;SDS011;25426;53.478;10.190;2024-02-23T21:51:13;3.63;;;2.50;;
39740;SDS011;25426;53.478;10.190;2024-02-23T21:53:44;4.82;;;2.60;;
39740;SDS011;25426;53.478;10.190;2024-02-23T21:56:15;9.93;;;3.10;;
39740;SDS011;25426;53.478;10.190;2024-02-23T21:58:46;5.47;;;2.53;;
39740;SDS011;25426;53.478;10.190;2024-02-23T22:01:17;6.75;;;4.15;;
39740;SDS011;25426;53.478;10.190;2024-02-23T22:03:48;5.22;;;2.75;;
39740;SDS011;25426;53.478;10.190;2024-02-23T22:06:22;6.13;;;2.80;;
39740;SDS011;25426;53.478;10.190;2024-02-23T22:08:53;4.53;;;2.70;;
39740;SDS011;25426;53.478;10.190;2024-02-23T22:11:24;7.18;;;4.20;;
39740;SDS011;25426;53.478;10.190;2024-02-23T22:13:55;9.55;;;4.75;;
39740;SDS011;25426;53.478;10.190;2024-02-23T22:16:26;9.13;;;5.53;;
39740;SDS011;25426;53.478;10.190;2024-02-23T22:18:57;5.55;;;3.28;;
39740;SDS011;25426;53.478;10.190;2024-02-23T22:21:28;4.57;;;2.53;;
39740;SDS011;25426;53.478;10.190;2024-02-23T22:23:59;4.68;;;2.67;;
39740;SDS011;25426;53.478;10.190;2024-02-23T22:26:30;6.63;;;3.55;;
39740;SDS011;25426;53.478;10.190;2024-02-23T22:29:02;3.58;;;2.58;;
39740;SDS011;25426;53.478;10.190;2024-02-23T22:31:33;5.32;;;3.30;;
39740;SDS011;25426;53.478;10.190;2024-02-23T22:34:04;7.32;;;2.80;;
39740;SDS011;25426;53.478;10.190;2024-02-23T22:36:35;5.38;;;3.65;;
39740;SDS011;25426;53.478;10.190;2024-02-23T22:39:06;2.80;;;1.95;;
39740;SDS011;25426;53.478;10.190;2024-02-23T22:41:37;4.50;;;2.22;;
39740;SDS011;25426;53.478;10.190;2024-02-23T22:44:09;3.85;;;2.65;;
39740;SDS011;25426;53.478;10.190;2024-02-23T22:46:40;4.32;;;2.60;;
39740;SDS011;25426;53.478;10.190;2024-02-23T22:49:10;5.60;;;4.15;;
39740;SDS011;25426;53.478;10.190;2024-02-23T22:51:42;7.63;;;4.13;;
39740;SDS011;25426;53.478;10.190;2024-02-23T22:54:14;8.52;;;6.05;;
39740;SDS011;25426;53.478;10.190;2024-02-23T22:56:46;9.38;;;5.07;;
39740;SDS011;25426;53.478;10.190;2024-02-23T22:59:17;7.40;;;4.38;;
39740;SDS011;25426;53.478;10.190;2024-02-23T23:01:48;5.40;;;3.33;;
39740;SDS011;25426;53.478;10.190;2024-02-23T23:04:19;5.15;;;3.20;;
39740;SDS011;25426;53.478;10.190;2024-02-23T23:06:50;7.32;;;3.13;;
39740;SDS011;25426;53.478;10.190;2024-02-23T23:09:22;8.20;;;4.95;;
39740;SDS011;25426;53.478;10.190;2024-02-23T23:11:53;7.35;;;5.13;;
39740;SDS011;25426;53.478;10.190;2024-02-23T23:18:55;13.63;;;8.23;;
39740;SDS011;25426;53.478;10.190;2024-02-23T23:21:26;14.30;;;8.23;;
39740;SDS011;25426;53.478;10.190;2024-02-23T23:23:57;18.77;;;10.10;;
39740;SDS011;25426;53.478;10.190;2024-02-23T23:26:28;16.52;;;10.60;;
39740;SDS011;25426;53.478;10.190;2024-02-23T23:28:59;23.08;;;12.40;;
39740;SDS011;25426;53.478;10.190;2024-02-23T23:31:30;18.85;;;9.43;;
39740;SDS011;25426;53.478;10.190;2024-02-23T23:34:01;8.10;;;4.20;;